Time,TemperatureF,DewpointF,PressureIn,WindDirection,WindDirectionDegrees,WindSpeedMPH,WindSpeedGustMPH,Humidity,HourlyPrecipIn,Conditions,Clouds,dailyrainin,SoftwareType,DateUTC
2013-10-10 00:03:00,47.4,42.0,30.25,NNE,15,0.0,0.0,81,0.00,,,0.00,weatherlink.com 1.10,2013-10-10 04:03:00,
2013-10-10 00:18:00,47.2,42.0,30.25,NNE,15,0.0,0.0,83,0.00,,,0.00,weatherlink.com 1.10,2013-10-10 04:18:00,
2013-10-10 00:33:00,47.1,42.0,30.24,NNE,15,0.0,0.0,82,0.00,,,0.00,weatherlink.com 1.10,2013-10-10 04:33:00,
2013-10-10 00:48:00,47.0,42.0,30.24,NNE,15,0.0,0.0,84,0.00,,,0.00,weatherlink.com 1.10,2013-10-10 04:48:00,
2013-10-10 01:03:00,47.0,42.0,30.24,NNE,15,0.0,0.0,82,0.00,,,0.00,weatherlink.com 1.10,2013-10-10 05:03:00,
2013-10-10 01:18:00,47.9,42.0,30.24,NNE,15,0.0,0.0,79,0.00,,,0.00,weatherlink.com 1.10,2013-10-10 05:18:00,
2013-10-10 01:33:00,48.1,42.0,30.24,NNE,16,0.0,1.0,79,0.00,,,0.00,weatherlink.com 1.10,2013-10-10 05:33:00,
2013-10-10 01:48:00,47.7,42.0,30.24,SE,136,0.0,0.0,79,0.00,,,0.00,weatherlink.com 1.10,2013-10-10 05:48:00,
2013-10-10 02:04:00,47.3,41.0,30.23,SE,136,0.0,0.0,80,0.00,,,0.00,weatherlink.com 1.10,2013-10-10 06:04:00,
2013-10-10 02:19:00,47.1,42.0,30.23,SE,137,0.0,0.0,81,0.00,,,0.00,weatherlink.com 1.10,2013-10-10 06:19:00,
2013-10-10 02:34:00,47.5,42.0,30.23,East,92,0.0,1.0,81,0.00,,,0.00,weatherlink.com 1.10,2013-10-10 06:34:00,
2013-10-10 02:49:00,48.2,42.0,30.23,East,92,0.0,1.0,79,0.00,,,0.00,weatherlink.com 1.10,2013-10-10 06:49:00,
2013-10-10 03:04:00,48.7,42.0,30.22,East,92,0.0,0.0,78,0.00,,,0.00,weatherlink.com 1.10,2013-10-10 07:04:00,
2013-10-10 03:19:00,48.8,42.0,30.22,East,92,0.0,0.0,78,0.00,,,0.00,weatherlink.com 1.10,2013-10-10 07:19:00,
2013-10-10 03:34:00,49.1,42.0,30.21,ENE,65,0.0,1.0,77,0.00,,,0.00,weatherlink.com 1.10,2013-10-10 07:34:00,
2013-10-10 03:49:00,48.9,42.0,30.20,ENE,73,0.0,1.0,78,0.00,,,0.00,weatherlink.com 1.10,2013-10-10 07:49:00,
2013-10-10 04:04:00,48.4,42.0,30.21,East,94,0.0,1.0,78,0.00,,,0.00,weatherlink.com 1.10,2013-10-10 08:04:00,
2013-10-10 04:19:00,47.5,42.0,30.20,East,93,0.0,1.0,80,0.00,,,0.00,weatherlink.com 1.10,2013-10-10 08:19:00,
2013-10-10 04:34:00,47.3,42.0,30.20,East,81,0.0,2.0,81,0.00,,,0.00,weatherlink.com 1.10,2013-10-10 08:34:00,
2013-10-10 04:49:00,47.0,41.0,30.20,East,81,0.0,0.0,81,0.00,,,0.00,weatherlink.com 1.10,2013-10-10 08:49:00,
2013-10-10 05:19:00,46.6,42.0,30.20,ESE,102,0.0,0.0,83,0.00,,,0.00,weatherlink.com 1.10,2013-10-10 09:19:00,
2013-10-10 05:34:00,46.4,42.0,30.20,ENE,77,0.0,1.0,83,0.00,,,0.00,weatherlink.com 1.10,2013-10-10 09:34:00,
2013-10-10 05:49:00,46.2,42.0,30.21,ENE,65,0.0,1.0,84,0.00,,,0.00,weatherlink.com 1.10,2013-10-10 09:49:00,
2013-10-10 06:04:00,46.0,41.0,30.21,ENE,65,0.0,1.0,84,0.00,,,0.00,weatherlink.com 1.10,2013-10-10 10:04:00,
2013-10-10 06:19:00,45.5,41.0,30.21,ENE,65,0.0,0.0,85,0.00,,,0.00,weatherlink.com 1.10,2013-10-10 10:19:00,
2013-10-10 06:34:00,44.8,41.0,30.21,ENE,65,0.0,0.0,86,0.00,,,0.00,weatherlink.com 1.10,2013-10-10 10:34:00,
2013-10-10 06:49:00,44.4,41.0,30.21,ENE,65,0.0,0.0,87,0.00,,,0.00,weatherlink.com 1.10,2013-10-10 10:49:00,
2013-10-10 07:04:00,44.3,41.0,30.21,ENE,65,0.0,0.0,88,0.00,,,0.00,weatherlink.com 1.10,2013-10-10 11:04:00,
2013-10-10 07:19:00,44.1,41.0,30.21,ENE,65,0.0,0.0,88,0.00,,,0.00,weatherlink.com 1.10,2013-10-10 11:19:00,
2013-10-10 07:34:00,43.5,41.0,30.21,ENE,65,0.0,0.0,89,0.00,,,0.00,weatherlink.com 1.10,2013-10-10 11:34:00,
2013-10-10 07:49:00,43.4,41.0,30.21,NW,313,0.0,0.0,90,0.00,,,0.00,weatherlink.com 1.10,2013-10-10 11:49:00,
2013-10-10 08:04:00,44.1,41.0,30.21,SE,127,0.0,0.0,90,0.00,,,0.00,weatherlink.com 1.10,2013-10-10 12:04:00,
2013-10-10 08:19:00,44.6,42.0,30.21,WNW,282,0.0,1.0,89,0.00,,,0.00,weatherlink.com 1.10,2013-10-10 12:19:00,
2013-10-10 08:34:00,44.7,42.0,30.21,WNW,283,0.0,0.0,89,0.00,,,0.00,weatherlink.com 1.10,2013-10-10 12:34:00,
2013-10-10 08:49:00,45.1,42.0,30.21,WNW,282,0.0,0.0,89,0.00,,,0.00,weatherlink.com 1.10,2013-10-10 12:49:00,
2013-10-10 09:04:00,45.8,43.0,30.21,SSW,210,0.0,0.0,88,0.00,,,0.00,weatherlink.com 1.10,2013-10-10 13:04:00,
2013-10-10 09:19:00,47.3,44.0,30.21,East,93,1.0,4.0,87,0.00,,,0.00,weatherlink.com 1.10,2013-10-10 13:19:00,
2013-10-10 09:34:00,48.6,44.0,30.21,NE,46,1.0,2.0,84,0.00,,,0.00,weatherlink.com 1.10,2013-10-10 13:34:00,
2013-10-10 09:49:00,50.3,45.0,30.21,NNE,30,2.0,2.0,81,0.00,,,0.00,weatherlink.com 1.10,2013-10-10 13:49:00,
2013-10-10 10:04:00,51.9,46.0,30.21,NE,46,0.0,5.0,79,0.00,,,0.00,weatherlink.com 1.10,2013-10-10 14:04:00,
2013-10-10 10:19:00,53.1,46.0,30.21,ENE,77,3.0,4.0,77,0.00,,,0.00,weatherlink.com 1.10,2013-10-10 14:19:00,
2013-10-10 10:34:00,54.2,46.0,30.20,NNE,29,2.0,5.0,73,0.00,,,0.00,weatherlink.com 1.10,2013-10-10 14:34:00,
2013-10-10 10:49:00,55.2,46.0,30.20,NE,40,0.0,4.0,72,0.00,,,0.00,weatherlink.com 1.10,2013-10-10 14:49:00,
2013-10-10 11:05:00,56.4,47.0,30.20,NE,50,1.0,7.0,70,0.00,,,0.00,weatherlink.com 1.10,2013-10-10 15:05:00,
2013-10-10 11:20:00,57.9,48.0,30.20,NNE,15,1.0,2.0,69,0.00,,,0.00,weatherlink.com 1.10,2013-10-10 15:20:00,
2013-10-10 11:35:00,59.3,49.0,30.20,North,360,3.0,4.0,69,0.00,,,0.00,weatherlink.com 1.10,2013-10-10 15:35:00,
2013-10-10 11:50:00,59.9,47.0,30.19,WSW,256,2.0,5.0,62,0.00,,,0.00,weatherlink.com 1.10,2013-10-10 15:50:00,
2013-10-10 12:05:00,60.8,47.0,30.20,NNE,12,1.0,5.0,61,0.00,,,0.00,weatherlink.com 1.10,2013-10-10 16:05:00,
2013-10-10 12:20:00,62.0,46.0,30.19,ENE,57,3.0,5.0,57,0.00,,,0.00,weatherlink.com 1.10,2013-10-10 16:20:00,
2013-10-10 12:35:00,63.3,47.0,30.18,NE,47,0.0,3.0,55,0.00,,,0.00,weatherlink.com 1.10,2013-10-10 16:35:00,
2013-10-10 12:50:00,63.9,45.0,30.18,ENE,63,1.0,2.0,51,0.00,,,0.00,weatherlink.com 1.10,2013-10-10 16:50:00,
2013-10-10 13:05:00,64.3,46.0,30.17,ESE,111,2.0,2.0,51,0.00,,,0.00,weatherlink.com 1.10,2013-10-10 17:05:00,
2013-10-10 13:20:00,64.7,45.0,30.16,East,89,0.0,2.0,50,0.00,,,0.00,weatherlink.com 1.10,2013-10-10 17:20:00,
2013-10-10 13:35:00,64.7,45.0,30.16,NE,54,0.0,2.0,50,0.00,,,0.00,weatherlink.com 1.10,2013-10-10 17:35:00,
2013-10-10 13:50:00,64.9,45.0,30.15,NNE,33,1.0,3.0,49,0.00,,,0.00,weatherlink.com 1.10,2013-10-10 17:50:00,
2013-10-10 14:05:00,64.5,45.0,30.15,NNE,25,0.0,2.0,50,0.00,,,0.00,weatherlink.com 1.10,2013-10-10 18:05:00,
2013-10-10 14:20:00,64.4,47.0,30.15,NW,311,0.0,2.0,54,0.00,,,0.00,weatherlink.com 1.10,2013-10-10 18:20:00,
2013-10-10 14:50:00,64.0,47.0,30.15,NNE,20,2.0,2.0,54,0.00,,,0.00,weatherlink.com 1.10,2013-10-10 18:50:00,
2013-10-10 15:05:00,64.1,47.0,30.15,NNE,22,0.0,1.0,55,0.00,,,0.00,weatherlink.com 1.10,2013-10-10 19:05:00,
2013-10-10 15:20:00,63.9,50.0,30.15,NNE,22,0.0,0.0,62,0.00,,,0.00,weatherlink.com 1.10,2013-10-10 19:20:00,
2013-10-10 15:35:00,63.7,50.0,30.14,NNE,22,0.0,1.0,62,0.00,,,0.00,weatherlink.com 1.10,2013-10-10 19:35:00,
2013-10-10 15:50:00,63.6,48.0,30.14,NE,37,0.0,1.0,57,0.00,,,0.00,weatherlink.com 1.10,2013-10-10 19:50:00,
2013-10-10 16:05:00,63.5,50.0,30.14,ENE,73,0.0,0.0,61,0.00,,,0.00,weatherlink.com 1.10,2013-10-10 20:05:00,
2013-10-10 16:20:00,63.2,52.0,30.13,ENE,74,0.0,0.0,66,0.00,,,0.00,weatherlink.com 1.10,2013-10-10 20:20:00,
2013-10-10 16:35:00,62.8,52.0,30.14,ENE,73,0.0,0.0,69,0.00,,,0.00,weatherlink.com 1.10,2013-10-10 20:35:00,
2013-10-10 16:50:00,62.1,52.0,30.14,ENE,74,0.0,0.0,70,0.00,,,0.00,weatherlink.com 1.10,2013-10-10 20:50:00,
2013-10-10 17:05:00,61.5,52.0,30.14,ENE,74,0.0,0.0,72,0.00,,,0.00,weatherlink.com 1.10,2013-10-10 21:05:00,
2013-10-10 17:20:00,60.7,52.0,30.14,ENE,74,0.0,0.0,72,0.00,,,0.00,weatherlink.com 1.10,2013-10-10 21:20:00,
2013-10-10 17:35:00,59.8,50.0,30.13,ENE,74,0.0,0.0,69,0.00,,,0.00,weatherlink.com 1.10,2013-10-10 21:35:00,
2013-10-10 17:50:00,60.3,45.0,30.14,East,81,0.0,2.0,58,0.00,,,0.00,weatherlink.com 1.10,2013-10-10 21:50:00,
2013-10-10 18:05:00,59.6,43.0,30.13,East,80,0.0,1.0,55,0.00,,,0.00,weatherlink.com 1.10,2013-10-10 22:05:00,
2013-10-10 18:20:00,59.7,43.0,30.13,East,83,0.0,2.0,55,0.00,,,0.00,weatherlink.com 1.10,2013-10-10 22:20:00,
2013-10-10 18:35:00,59.9,42.0,30.13,ENE,70,0.0,1.0,52,0.00,,,0.00,weatherlink.com 1.10,2013-10-10 22:35:00,
2013-10-10 18:50:00,59.6,45.0,30.13,ESE,117,0.0,2.0,58,0.00,,,0.00,weatherlink.com 1.10,2013-10-10 22:50:00,
2013-10-10 19:05:00,58.4,44.0,30.13,ESE,110,0.0,0.0,59,0.00,,,0.00,weatherlink.com 1.10,2013-10-10 23:05:00,
2013-10-10 19:20:00,58.2,45.0,30.13,ESE,108,4.0,4.0,63,0.00,,,0.00,weatherlink.com 1.10,2013-10-10 23:20:00,
2013-10-10 19:35:00,57.6,46.0,30.13,ESE,105,1.0,5.0,65,0.00,,,0.00,weatherlink.com 1.10,2013-10-10 23:35:00,
2013-10-10 19:50:00,56.8,46.0,30.13,East,82,1.0,3.0,68,0.00,,,0.00,weatherlink.com 1.10,2013-10-10 23:50:00,
2013-10-10 20:05:00,56.2,46.0,30.12,ENE,70,0.0,3.0,69,0.00,,,0.00,weatherlink.com 1.10,2013-10-11 00:05:00,
2013-10-10 20:20:00,55.6,47.0,30.12,East,94,1.0,5.0,73,0.00,,,0.00,weatherlink.com 1.10,2013-10-11 00:20:00,
2013-10-10 20:35:00,55.1,48.0,30.13,NNE,20,1.0,3.0,76,0.00,,,0.00,weatherlink.com 1.10,2013-10-11 00:35:00,
2013-10-10 20:50:00,54.7,48.0,30.13,NNE,23,2.0,3.0,79,0.00,,,0.00,weatherlink.com 1.10,2013-10-11 00:50:00,
2013-10-10 21:05:00,54.3,48.0,30.13,ENE,66,2.0,4.0,80,0.00,,,0.00,weatherlink.com 1.10,2013-10-11 01:05:00,
2013-10-10 21:20:00,54.0,48.0,30.13,East,94,0.0,3.0,79,0.00,,,0.00,weatherlink.com 1.10,2013-10-11 01:20:00,
2013-10-10 21:35:00,53.8,47.0,30.13,ESE,113,0.0,3.0,79,0.00,,,0.00,weatherlink.com 1.10,2013-10-11 01:35:00,
2013-10-10 21:51:00,53.7,47.0,30.12,ENE,71,0.0,1.0,79,0.00,,,0.00,weatherlink.com 1.10,2013-10-11 01:51:00,
2013-10-10 22:06:00,53.6,48.0,30.12,NE,35,0.0,3.0,80,0.00,,,0.00,weatherlink.com 1.10,2013-10-11 02:06:00,
2013-10-10 22:21:00,53.5,48.0,30.12,ENE,65,1.0,3.0,80,0.00,,,0.00,weatherlink.com 1.10,2013-10-11 02:21:00,
2013-10-10 22:36:00,53.3,48.0,30.13,ESE,112,0.0,4.0,81,0.00,,,0.00,weatherlink.com 1.10,2013-10-11 02:36:00,
2013-10-10 22:51:00,53.2,48.0,30.12,ENE,72,1.0,2.0,82,0.00,,,0.00,weatherlink.com 1.10,2013-10-11 02:51:00,
2013-10-10 23:06:00,53.1,48.0,30.12,NNE,31,0.0,3.0,82,0.00,,,0.00,weatherlink.com 1.10,2013-10-11 03:06:00,
2013-10-10 23:21:00,53.2,48.0,30.11,East,86,2.0,3.0,82,0.00,,,0.00,weatherlink.com 1.10,2013-10-11 03:21:00,
2013-10-10 23:36:00,53.0,48.0,30.11,NNE,15,0.0,2.0,82,0.00,,,0.00,weatherlink.com 1.10,2013-10-11 03:36:00,
2013-10-10 23:51:00,53.0,48.0,30.11,NNE,22,0.0,2.0,82,0.00,,,0.00,weatherlink.com 1.10,2013-10-11 03:51:00,